Time;durP1;ratioP1;P1;durP2;ratioP2;P2;SDS_P1;SDS_P2;PMS_P1;PMS_P2;Temp;Humidity;BMP_temperature;BMP_pressure;BME280_temperature;BME280_humidity;BME280_pressure;Samples;Min_cycle;Max_cycle;Signal;HPM_P1;HPM_P2
2022/04/25 00:01:53;;;;;;;22.83;17.35;;;8.10;99.90;;;;;;4978177;28;90588;-32
2022/04/25 00:04:18;;;;;;;24.25;18.85;;;8.10;99.90;;;;;;4978715;28;90021;-35
2022/04/25 00:06:44;;;;;;;22.15;17.80;;;8.10;99.90;;;;;;4977498;28;90367;-34
2022/04/25 00:09:09;;;;;;;24.13;17.15;;;8.10;99.90;;;;;;4979086;28;90109;-34
2022/04/25 00:11:35;;;;;;;27.95;18.85;;;8.10;99.90;;;;;;4978453;28;88607;-34
2022/04/25 00:14:01;;;;;;;21.52;18.13;;;8.00;99.90;;;;;;4978540;28;90169;-33
2022/04/25 00:16:26;;;;;;;22.77;17.40;;;8.00;99.90;;;;;;4978791;28;90340;-33
2022/04/25 00:18:52;;;;;;;24.25;19.38;;;8.00;99.90;;;;;;4977584;28;91935;-34
2022/04/25 00:21:17;;;;;;;25.85;18.30;;;8.10;99.90;;;;;;4978823;28;88837;-33
2022/04/25 00:23:43;;;;;;;23.10;17.98;;;8.10;99.90;;;;;;4978014;28;88877;-33
2022/04/25 00:26:09;;;;;;;23.33;20.60;;;8.00;99.90;;;;;;4979060;28;90584;-34
2022/04/25 00:28:35;;;;;;;25.95;19.48;;;8.10;99.90;;;;;;4978179;28;89672;-35
2022/04/25 00:31:00;;;;;;;28.45;20.60;;;8.00;99.90;;;;;;4977932;28;89940;-37
2022/04/25 00:33:27;;;;;;;20.55;18.40;;;8.10;99.90;;;;;;5005207;22;89591;-32
2022/04/25 00:35:52;;;;;;;25.13;18.60;;;8.00;99.90;;;;;;4958265;28;90446;-33
2022/04/25 00:38:18;;;;;;;27.55;21.33;;;8.00;99.90;;;;;;4958623;28;89420;-34
2022/04/25 00:40:44;;;;;;;32.83;21.13;;;8.00;99.90;;;;;;4940514;28;90280;-35
2022/04/25 00:43:10;;;;;;;30.10;22.42;;;8.00;99.90;;;;;;4958438;28;89497;-33
2022/04/25 00:45:36;;;;;;;33.65;21.27;;;8.00;99.90;;;;;;4958688;28;90402;-33
2022/04/25 00:48:02;;;;;;;23.00;20.25;;;8.00;99.90;;;;;;4957815;28;90637;-35
2022/04/25 00:50:28;;;;;;;26.60;20.42;;;7.90;99.90;;;;;;4958306;28;90886;-38
2022/04/25 00:52:54;;;;;;;28.75;21.42;;;7.90;99.90;;;;;;4958292;28;87807;-32
2022/04/25 00:55:20;;;;;;;21.73;19.40;;;7.90;99.90;;;;;;4957913;28;90297;-33
2022/04/25 00:57:46;;;;;;;26.10;20.42;;;8.00;99.90;;;;;;4958265;28;90356;-34
2022/04/25 01:00:13;;;;;;;32.85;21.67;;;7.90;99.90;;;;;;4957710;28;89545;-35
2022/04/25 01:02:40;;;;;;;24.10;20.38;;;7.90;99.90;;;;;;4957259;28;89265;-36
2022/04/25 01:05:07;;;;;;;27.70;18.48;;;7.90;99.90;;;;;;4958157;28;90295;-37
2022/04/25 01:07:38;;;;;;;29.37;20.87;;;8.00;99.90;;;;;;4958537;28;89893;-34
2022/04/25 01:10:05;;;;;;;23.40;19.80;;;7.90;99.90;;;;;;4958524;28;89823;-34
2022/04/25 01:12:31;;;;;;;25.63;19.88;;;7.90;99.90;;;;;;4958134;28;88144;-34
2022/04/25 01:15:01;;;;;;;27.38;19.42;;;7.90;99.90;;;;;;4957671;28;90236;-33
2022/04/25 01:17:27;;;;;;;25.15;19.17;;;7.80;99.90;;;;;;4957509;28;89519;-38
2022/04/25 01:19:53;;;;;;;27.55;19.65;;;7.70;99.90;;;;;;4960026;28;90418;-33
2022/04/25 01:22:27;;;;;;;26.30;20.08;;;7.70;99.90;;;;;;4950641;28;88924;-37
2022/04/25 01:27:38;;;;;;;21.15;18.92;;;7.60;99.90;;;;;;4940990;28;89755;-32
2022/04/25 01:30:05;;;;;;;25.58;19.73;;;7.50;99.90;;;;;;4941857;28;89660;-37
2022/04/25 01:32:30;;;;;;;27.13;20.13;;;7.50;99.90;;;;;;4924166;28;87641;-34
2022/04/25 01:34:56;;;;;;;26.98;21.13;;;7.50;99.90;;;;;;4941072;28;91403;-35
2022/04/25 01:37:21;;;;;;;29.70;21.90;;;7.40;99.90;;;;;;4941040;28;90761;-34
2022/04/25 01:39:54;;;;;;;25.45;20.98;;;7.40;99.90;;;;;;4940609;28;92415;-34
2022/04/25 01:42:21;;;;;;;35.15;22.27;;;7.30;99.90;;;;;;4941864;28;89396;-37
2022/04/25 01:44:47;;;;;;;25.65;21.13;;;7.30;99.90;;;;;;4941372;28;89327;-33
2022/04/25 01:47:13;;;;;;;29.20;22.55;;;7.30;99.90;;;;;;4941525;28;89932;-34
2022/04/25 01:49:39;;;;;;;27.55;22.05;;;7.30;99.90;;;;;;4941114;28;89925;-33
2022/04/25 01:52:29;;;;;;;33.13;21.75;;;7.20;99.90;;;;;;4940719;28;87569;-33
2022/04/25 01:54:55;;;;;;;25.23;19.60;;;7.20;99.90;;;;;;4913567;28;90777;-34
2022/04/25 01:57:21;;;;;;;24.45;20.42;;;7.10;99.90;;;;;;4940885;28;90483;-33
2022/04/25 01:59:47;;;;;;;27.23;20.02;;;7.10;99.90;;;;;;4941410;28;89488;-35
2022/04/25 02:02:13;;;;;;;26.23;20.25;;;7.00;99.90;;;;;;4940609;28;88646;-37
2022/04/25 02:04:39;;;;;;;28.75;20.73;;;6.90;99.90;;;;;;4940850;28;90137;-35
2022/04/25 02:07:09;;;;;;;25.20;20.63;;;6.90;99.90;;;;;;4941382;28;89144;-31
2022/04/25 02:09:36;;;;;;;22.45;19.77;;;6.80;99.90;;;;;;4941286;28;89774;-36
2022/04/25 02:12:03;;;;;;;28.25;22.58;;;6.80;99.90;;;;;;4940626;28;90133;-33
2022/04/25 02:14:29;;;;;;;26.48;20.33;;;6.90;99.90;;;;;;4941464;28;90956;-37
2022/04/25 02:16:58;;;;;;;30.80;22.17;;;6.90;99.90;;;;;;4940462;28;89676;-35
2022/04/25 02:19:25;;;;;;;31.70;21.23;;;6.80;99.90;;;;;;4941040;28;89539;-35
2022/04/25 02:21:50;;;;;;;25.58;20.83;;;6.80;99.90;;;;;;4940206;28;88188;-37
2022/04/25 02:24:16;;;;;;;27.63;21.50;;;6.80;99.90;;;;;;4941416;28;89845;-35
2022/04/25 02:26:41;;;;;;;29.10;21.05;;;6.80;99.90;;;;;;4940625;28;91358;-32
2022/04/25 02:29:07;;;;;;;25.70;21.20;;;6.90;99.90;;;;;;4941285;28;90396;-34
2022/04/25 02:31:33;;;;;;;27.85;22.23;;;6.80;99.90;;;;;;4941300;28;88450;-33
2022/04/25 02:33:58;;;;;;;26.50;22.05;;;6.90;99.90;;;;;;4938038;28;90127;-33
2022/04/25 02:36:24;;;;;;;30.70;21.83;;;6.80;99.90;;;;;;4940681;28;92446;-37
2022/04/25 02:38:50;;;;;;;23.75;19.95;;;6.90;99.90;;;;;;4939996;28;89875;-36
2022/04/25 02:41:16;;;;;;;25.48;18.58;;;6.80;99.90;;;;;;4941293;28;88082;-35
2022/04/25 02:43:43;;;;;;;26.83;20.60;;;6.90;99.90;;;;;;4940575;28;90062;-34
2022/04/25 02:46:11;;;;;;;35.10;21.13;;;6.80;99.90;;;;;;4940162;28;89598;-33
2022/04/25 02:48:38;;;;;;;23.85;19.23;;;6.90;99.90;;;;;;4940575;28;89647;-36
2022/04/25 02:51:06;;;;;;;31.25;20.67;;;6.90;99.90;;;;;;4940249;28;90244;-37
2022/04/25 02:53:32;;;;;;;29.40;20.25;;;6.90;99.90;;;;;;4940828;28;90699;-32
2022/04/25 02:55:58;;;;;;;26.10;21.08;;;6.90;99.90;;;;;;4940121;28;89609;-32
2022/04/25 02:58:25;;;;;;;36.38;22.30;;;6.90;99.90;;;;;;4940421;28;90254;-33
2022/04/25 03:00:52;;;;;;;25.15;19.27;;;6.90;99.90;;;;;;4940512;28;89869;-32
2022/04/25 03:03:20;;;;;;;28.77;19.08;;;6.90;99.90;;;;;;4940493;28;90539;-35
2022/04/25 03:05:50;;;;;;;25.77;20.50;;;6.90;99.90;;;;;;4939967;28;89753;-34
2022/04/25 03:08:18;;;;;;;29.20;20.05;;;7.00;99.90;;;;;;4940263;28;89593;-34
2022/04/25 03:10:45;;;;;;;25.85;19.90;;;7.00;99.90;;;;;;4939914;28;88786;-35
2022/04/25 03:13:11;;;;;;;32.95;20.42;;;6.90;99.90;;;;;;4938842;28;90374;-36
2022/04/25 03:15:38;;;;;;;23.55;17.92;;;6.90;99.90;;;;;;4939427;28;90717;-33
2022/04/25 03:18:08;;;;;;;23.05;18.23;;;6.90;99.90;;;;;;4939726;28;90691;-37
2022/04/25 03:20:34;;;;;;;27.00;19.58;;;6.90;99.90;;;;;;4940065;28;89270;-39
2022/04/25 03:23:00;;;;;;;20.92;18.58;;;6.80;99.90;;;;;;4940203;28;90275;-33
2022/04/25 03:25:26;;;;;;;28.52;18.15;;;6.90;99.90;;;;;;4939808;28;89973;-33
2022/04/25 03:27:52;;;;;;;21.02;17.90;;;6.90;99.90;;;;;;4940096;28;89448;-36
2022/04/25 03:30:17;;;;;;;30.33;19.98;;;6.90;99.90;;;;;;4940042;28;89703;-33
2022/04/25 03:32:47;;;;;;;23.83;18.35;;;6.90;99.90;;;;;;4939306;28;90200;-36
2022/04/25 03:35:13;;;;;;;33.42;21.60;;;6.90;99.90;;;;;;4939630;28;90241;-34
2022/04/25 03:37:39;;;;;;;27.85;19.58;;;6.90;99.90;;;;;;4939564;28;89433;-33
2022/04/25 03:40:06;;;;;;;27.98;19.42;;;6.90;99.90;;;;;;4939802;28;89981;-36
2022/04/25 03:42:34;;;;;;;27.25;19.38;;;6.90;99.90;;;;;;4938892;28;90291;-35
2022/04/25 03:45:00;;;;;;;25.65;18.52;;;6.80;99.90;;;;;;4939967;28;89286;-35
2022/04/25 03:47:28;;;;;;;25.85;20.15;;;6.80;99.90;;;;;;4938173;28;90448;-36
2022/04/25 03:49:54;;;;;;;;;;;6.90;99.90;;;;;;4939957;28;88389;-33
2022/04/25 03:52:19;;;;;;;27.17;20.13;;;6.80;99.90;;;;;;4941688;28;90420;-38
2022/04/25 03:57:29;;;;;;;24.92;19.25;;;6.80;99.90;;;;;;4939377;28;89723;-39
2022/04/25 03:59:55;;;;;;;23.58;20.25;;;6.80;99.90;;;;;;4939765;28;89966;-32
2022/04/25 04:02:21;;;;;;;26.08;18.05;;;6.80;99.90;;;;;;4939631;28;90170;-35
2022/04/25 04:04:47;;;;;;;27.55;20.38;;;6.80;99.90;;;;;;4939103;28;90592;-34
2022/04/25 04:07:13;;;;;;;26.85;17.88;;;6.80;99.90;;;;;;4939682;28;90457;-35
2022/04/25 04:09:45;;;;;;;23.30;19.83;;;6.80;99.90;;;;;;4938727;28;88243;-36
2022/04/25 04:12:12;;;;;;;27.00;19.80;;;6.90;99.90;;;;;;4939399;28;90654;-33
2022/04/25 04:14:40;;;;;;;21.05;18.08;;;6.90;99.90;;;;;;4939346;28;89658;-33
2022/04/25 04:17:08;;;;;;;25.43;18.77;;;6.90;99.90;;;;;;4938075;28;89706;-32
2022/04/25 04:19:37;;;;;;;25.92;19.02;;;7.00;99.90;;;;;;4939762;28;88741;-36
2022/04/25 04:22:04;;;;;;;22.15;17.98;;;7.00;99.90;;;;;;4939634;28;90232;-32
2022/04/25 04:24:31;;;;;;;21.52;18.02;;;6.90;99.90;;;;;;4939211;28;89593;-35
2022/04/25 04:27:06;;;;;;;24.88;17.55;;;6.90;99.90;;;;;;4938612;28;90051;-34
2022/04/25 04:29:34;;;;;;;24.35;17.05;;;6.90;99.90;;;;;;4939376;28;89778;-35
2022/04/25 04:32:02;;;;;;;26.17;19.45;;;6.90;99.90;;;;;;4939389;28;89616;-33
2022/04/25 04:34:28;;;;;;;;;;;6.90;99.90;;;;;;4938417;28;89627;-35
2022/04/25 04:36:54;;;;;;;22.02;17.08;;;6.90;99.90;;;;;;4940984;28;89138;-37
2022/04/25 04:39:20;;;;;;;26.77;18.83;;;6.90;99.90;;;;;;4939234;28;87625;-33
2022/04/25 04:41:46;;;;;;;24.45;17.77;;;6.90;99.90;;;;;;4938731;28;89939;-32
2022/04/25 04:44:12;;;;;;;19.92;17.80;;;6.90;99.90;;;;;;4938948;28;89774;-32
2022/04/25 04:46:38;;;;;;;20.83;16.88;;;6.90;99.90;;;;;;4938670;28;89946;-36
2022/04/25 04:49:03;;;;;;;20.63;18.05;;;6.90;99.90;;;;;;4939415;28;89422;-35
2022/04/25 04:51:29;;;;;;;28.08;16.83;;;7.00;99.90;;;;;;4939000;28;90993;-34
2022/04/25 04:53:59;;;;;;;23.92;17.95;;;7.00;99.90;;;;;;4938845;28;90716;-34
2022/04/25 04:56:31;;;;;;;26.95;17.38;;;7.00;99.90;;;;;;4942003;28;90327;-33
2022/04/25 04:58:58;;;;;;;21.45;17.00;;;7.00;99.90;;;;;;4941908;28;89642;-32
2022/04/25 05:01:24;;;;;;;22.63;17.25;;;7.00;99.90;;;;;;4941997;28;89157;-35
2022/04/25 05:03:50;;;;;;;24.33;17.40;;;7.00;99.90;;;;;;4942432;28;89652;-33
2022/04/25 05:06:16;;;;;;;26.17;17.08;;;7.00;99.90;;;;;;4942342;28;89663;-36
2022/04/25 05:08:42;;;;;;;21.10;17.90;;;7.00;99.90;;;;;;4973905;28;88836;-36
2022/04/25 05:11:11;;;;;;;25.98;18.17;;;7.00;99.90;;;;;;4981184;28;91483;-36
2022/04/25 05:13:37;;;;;;;25.48;17.13;;;7.00;99.90;;;;;;4981219;28;89594;-34
2022/04/25 05:16:04;;;;;;;19.60;17.48;;;7.10;99.90;;;;;;4980843;28;89915;-33
2022/04/25 05:18:32;;;;;;;23.45;18.42;;;7.10;99.90;;;;;;4981717;28;90167;-35
2022/04/25 05:20:58;;;;;;;20.02;16.30;;;7.10;99.90;;;;;;4981740;28;90026;-34
2022/04/25 05:23:24;;;;;;;22.20;17.02;;;7.10;99.90;;;;;;4980911;28;90060;-32
2022/04/25 05:25:50;;;;;;;26.55;18.20;;;7.10;99.90;;;;;;4981279;28;89640;-34
2022/04/25 05:28:16;;;;;;;21.00;16.10;;;7.10;99.90;;;;;;4981354;28;89011;-35
2022/04/25 05:30:43;;;;;;;22.63;16.63;;;7.10;99.90;;;;;;4981214;28;90218;-33
2022/04/25 05:33:09;;;;;;;27.20;17.23;;;7.10;99.90;;;;;;4981028;28;90113;-32
2022/04/25 05:35:35;;;;;;;16.98;14.48;;;7.20;99.90;;;;;;4980480;28;89235;-35
2022/04/25 05:38:02;;;;;;;24.70;15.98;;;7.20;99.90;;;;;;4979364;28;88905;-35
2022/04/25 05:40:28;;;;;;;20.90;14.63;;;7.20;99.90;;;;;;4980636;28;90198;-35
2022/04/25 05:42:56;;;;;;;19.23;16.17;;;7.30;99.90;;;;;;4980296;28;90654;-35
2022/04/25 05:45:24;;;;;;;23.03;15.57;;;7.30;99.90;;;;;;4981039;28;90672;-37
2022/04/25 05:47:51;;;;;;;23.73;15.70;;;7.30;99.90;;;;;;4979834;28;89511;-38
2022/04/25 05:53:03;;;;;;;24.90;15.13;;;7.40;99.90;;;;;;4980385;28;89810;-35
2022/04/25 05:55:29;;;;;;;21.98;14.55;;;7.40;99.90;;;;;;4981341;28;89819;-33
2022/04/25 05:57:55;;;;;;;19.15;16.88;;;7.40;99.90;;;;;;4980741;28;88884;-33
2022/04/25 06:00:21;;;;;;;26.55;16.98;;;7.50;99.90;;;;;;4980752;28;90205;-34
2022/04/25 06:02:47;;;;;;;22.75;17.60;;;7.50;99.90;;;;;;4980203;28;90060;-33
2022/04/25 06:05:15;;;;;;;22.92;16.08;;;7.50;99.90;;;;;;4980292;28;88012;-32
2022/04/25 06:07:45;;;;;;;20.23;15.47;;;7.50;99.90;;;;;;4979516;28;89362;-35
2022/04/25 06:10:13;;;;;;;25.63;15.88;;;7.50;99.90;;;;;;4980778;28;91404;-34
2022/04/25 06:12:43;;;;;;;24.90;18.63;;;7.60;99.90;;;;;;4979897;28;90312;-35
2022/04/25 06:15:09;;;;;;;22.77;16.45;;;7.60;99.90;;;;;;4980439;28;89551;-35
2022/04/25 06:17:38;;;;;;;19.45;17.08;;;7.60;99.90;;;;;;4979734;28;90038;-34
2022/04/25 06:20:06;;;;;;;26.40;18.02;;;7.60;99.90;;;;;;4980490;28;90213;-37
2022/04/25 06:22:32;;;;;;;19.70;16.20;;;7.60;99.90;;;;;;4979977;28;90205;-33
2022/04/25 06:24:58;;;;;;;21.02;16.85;;;7.70;99.90;;;;;;4979623;28;90671;-34
2022/04/25 06:27:24;;;;;;;23.77;18.65;;;7.70;99.90;;;;;;4957054;28;89648;-37
2022/04/25 06:29:49;;;;;;;25.52;18.63;;;7.70;99.90;;;;;;4978062;28;90586;-33
2022/04/25 06:32:16;;;;;;;27.33;21.10;;;7.70;99.90;;;;;;4977347;28;90533;-32
2022/04/25 06:34:41;;;;;;;25.02;19.55;;;7.70;99.90;;;;;;4978519;28;90899;-33
2022/04/25 06:37:07;;;;;;;27.73;20.48;;;7.60;99.90;;;;;;4978034;28;89564;-33
2022/04/25 06:39:33;;;;;;;27.55;19.48;;;7.70;99.90;;;;;;4977812;28;90391;-37
2022/04/25 06:42:00;;;;;;;30.00;21.13;;;7.60;99.90;;;;;;4978631;28;89765;-33
2022/04/25 06:44:25;;;;;;;22.27;19.00;;;7.60;99.90;;;;;;4978055;28;89721;-33
2022/04/25 06:46:51;;;;;;;34.97;22.15;;;7.60;99.90;;;;;;4978469;28;89286;-35
2022/04/25 06:49:27;;;;;;;28.73;22.15;;;7.60;99.90;;;;;;4977327;28;89857;-37
2022/04/25 06:51:56;;;;;;;27.23;20.80;;;7.50;99.90;;;;;;4976819;28;90196;-36
2022/04/25 06:54:24;;;;;;;30.13;21.20;;;7.50;99.90;;;;;;4959600;28;91014;-34
2022/04/25 06:56:51;;;;;;;23.48;19.25;;;7.50;99.90;;;;;;4978103;28;90771;-36
2022/04/25 06:59:16;;;;;;;26.17;19.95;;;7.50;99.90;;;;;;4977386;28;90238;-34
2022/04/25 07:01:42;;;;;;;25.20;20.40;;;7.60;99.90;;;;;;4977188;28;89786;-35
2022/04/25 07:04:09;;;;;;;32.03;20.52;;;7.60;99.90;;;;;;4977930;28;89847;-35
2022/04/25 07:06:35;;;;;;;24.17;19.48;;;7.50;99.90;;;;;;4977440;28;88479;-38
2022/04/25 07:09:00;;;;;;;27.52;20.77;;;7.50;99.90;;;;;;4976547;28;89922;-36
2022/04/25 07:11:26;;;;;;;30.33;22.70;;;7.50;99.90;;;;;;4977910;28;89951;-33
2022/04/25 07:13:52;;;;;;;29.98;22.95;;;7.50;99.90;;;;;;4959351;28;90643;-34
2022/04/25 07:16:17;;;;;;;36.35;22.65;;;7.50;99.90;;;;;;4977414;28;87706;-35
2022/04/25 07:18:43;;;;;;;25.85;19.98;;;7.40;99.90;;;;;;4976400;28;89602;-36
2022/04/25 07:29:29;;;;;;;29.73;20.92;;;7.40;99.90;;;;;;4976891;28;90223;-33
2022/04/25 07:31:55;;;;;;;28.02;22.10;;;7.40;99.90;;;;;;4976848;28;89758;-34
2022/04/25 07:34:21;;;;;;;26.88;21.88;;;7.30;99.90;;;;;;4976997;28;91235;-33
2022/04/25 07:36:51;;;;;;;27.25;19.30;;;7.20;99.90;;;;;;4976694;28;89037;-32
2022/04/25 07:39:18;;;;;;;29.65;21.33;;;7.30;99.90;;;;;;4976466;28;90475;-34
2022/04/25 07:41:44;;;;;;;34.40;23.20;;;7.30;99.90;;;;;;4976824;28;90127;-36
2022/04/25 07:44:10;;;;;;;31.00;21.98;;;7.30;99.90;;;;;;4977188;28;89537;-33
2022/04/25 07:46:36;;;;;;;29.77;21.80;;;7.30;99.90;;;;;;4976312;28;89877;-35
2022/04/25 07:49:02;;;;;;;25.20;20.02;;;7.20;99.90;;;;;;4976746;28;90476;-34
2022/04/25 07:51:28;;;;;;;21.63;19.30;;;7.30;99.90;;;;;;4976487;28;91737;-36
2022/04/25 07:53:53;;;;;;;23.40;20.40;;;7.40;99.90;;;;;;4947539;28;89962;-33
2022/04/25 07:56:19;;;;;;;24.92;20.70;;;7.30;99.90;;;;;;4937794;28;89274;-32
2022/04/25 07:58:45;;;;;;;25.70;21.25;;;7.40;99.90;;;;;;4937249;28;90353;-34
2022/04/25 08:01:11;;;;;;;27.10;20.40;;;7.40;99.90;;;;;;4937789;28;89811;-35
2022/04/25 08:03:37;;;;;;;30.90;21.38;;;7.40;99.90;;;;;;4937261;28;89692;-37
2022/04/25 08:06:04;;;;;;;24.13;19.50;;;7.40;99.90;;;;;;4937694;28;89104;-37
2022/04/25 08:08:31;;;;;;;25.77;21.97;;;7.40;99.90;;;;;;4937086;28;89919;-32
2022/04/25 08:10:57;;;;;;;27.10;20.40;;;7.40;99.90;;;;;;4937112;28;91521;-34
2022/04/25 08:18:51;;;;;;;22.83;19.15;;;7.40;99.90;;;;;;4936829;28;90135;-33
2022/04/25 08:21:17;;;;;;;28.17;19.13;;;7.50;99.90;;;;;;4937873;28;90443;-33
2022/04/25 08:23:45;;;;;;;20.55;17.50;;;7.50;99.90;;;;;;4937138;28;90598;-32
2022/04/25 08:26:11;;;;;;;20.17;17.73;;;7.40;99.90;;;;;;4937416;28;89634;-32
2022/04/25 08:28:37;;;;;;;24.42;18.63;;;7.50;99.90;;;;;;4938154;28;90520;-34
2022/04/25 08:31:03;;;;;;;26.70;18.60;;;7.50;99.90;;;;;;4940703;28;90820;-35
2022/04/25 08:33:30;;;;;;;26.02;17.92;;;7.40;99.90;;;;;;4939777;28;89602;-36
2022/04/25 08:35:57;;;;;;;21.52;18.73;;;7.50;99.90;;;;;;4940560;28;89498;-34
2022/04/25 08:38:23;;;;;;;23.23;16.95;;;7.50;99.90;;;;;;4940592;28;90338;-32
2022/04/25 08:40:50;;;;;;;21.80;17.10;;;7.50;99.90;;;;;;4939941;28;89613;-38
2022/04/25 08:43:16;;;;;;;24.65;17.85;;;7.60;99.90;;;;;;4941233;28;89881;-36
2022/04/25 08:45:42;;;;;;;25.60;15.68;;;7.60;99.90;;;;;;4940781;28;88377;-34
2022/04/25 08:48:10;;;;;;;23.77;19.25;;;7.70;99.90;;;;;;4949889;28;91781;-38
2022/04/25 08:50:39;;;;;;;21.88;16.20;;;7.80;99.90;;;;;;4979499;28;89685;-34
2022/04/25 08:53:06;;;;;;;28.25;17.15;;;7.80;99.90;;;;;;4979811;28;90200;-33
2022/04/25 08:55:32;;;;;;;19.77;16.77;;;7.80;99.90;;;;;;4979792;28;89354;-34
2022/04/25 08:57:59;;;;;;;21.35;15.52;;;7.90;99.90;;;;;;4978919;28;90339;-36
2022/04/25 09:00:25;;;;;;;18.48;15.23;;;8.00;99.90;;;;;;4979001;28;90809;-33
2022/04/25 09:02:52;;;;;;;20.42;15.25;;;8.00;99.90;;;;;;4979006;28;90231;-33
2022/04/25 09:05:18;;;;;;;20.95;15.75;;;8.00;99.90;;;;;;4979142;28;87561;-32
2022/04/25 09:07:44;;;;;;;21.52;15.73;;;8.10;99.90;;;;;;4978931;28;90228;-37
2022/04/25 09:10:12;;;;;;;16.85;13.95;;;8.00;99.90;;;;;;4978990;28;90170;-34
2022/04/25 09:12:41;;;;;;;17.63;13.60;;;8.00;99.90;;;;;;4979160;28;89667;-32
2022/04/25 09:15:08;;;;;;;19.50;14.85;;;7.90;99.90;;;;;;4978915;28;88205;-33
2022/04/25 09:17:38;;;;;;;18.40;12.73;;;7.90;99.90;;;;;;4961531;28;92034;-36
2022/04/25 09:20:05;;;;;;;16.00;14.10;;;7.90;99.90;;;;;;4979327;28;89635;-37
2022/04/25 09:22:32;;;;;;;18.35;14.20;;;8.00;99.90;;;;;;4979769;28;90383;-34
2022/04/25 09:25:07;;;;;;;19.92;14.68;;;8.00;99.90;;;;;;4978806;28;90354;-36
2022/04/25 09:27:33;;;;;;;19.75;13.48;;;8.00;99.90;;;;;;4979474;28;91262;-32
2022/04/25 09:30:31;;;;;;;22.95;13.95;;;8.00;99.90;;;;;;4979249;28;89995;-33
2022/04/25 09:32:57;;;;;;;19.40;15.30;;;8.00;99.90;;;;;;4934386;28;89771;-33
2022/04/25 09:35:33;;;;;;;18.92;14.68;;;8.10;99.90;;;;;;4979113;28;89303;-33
2022/04/25 09:38:01;;;;;;;19.67;13.75;;;8.10;99.90;;;;;;4979001;28;91160;-35
2022/04/25 09:40:29;;;;;;;16.67;14.10;;;8.20;99.90;;;;;;4978049;28;89646;-32
2022/04/25 09:43:05;;;;;;;17.58;14.55;;;8.20;99.90;;;;;;4979149;28;89650;-33
2022/04/25 09:45:33;;;;;;;19.20;14.18;;;8.30;99.90;;;;;;4979261;28;89652;-32
2022/04/25 09:47:59;;;;;;;19.80;14.90;;;8.20;99.90;;;;;;4978888;28;90396;-33
2022/04/25 09:50:27;;;;;;;16.88;13.40;;;8.20;99.90;;;;;;4978932;28;90812;-33
2022/04/25 09:52:59;;;;;;;21.88;15.02;;;8.20;99.90;;;;;;4978660;28;92287;-32
2022/04/25 09:55:27;;;;;;;14.30;12.80;;;8.40;99.90;;;;;;4960968;28;88868;-33
2022/04/25 09:57:54;;;;;;;;;;;8.30;99.90;;;;;;4979350;28;90377;-34
2022/04/25 10:00:33;;;;;;;14.98;13.02;;;8.30;99.90;;;;;;4980960;28;89617;-35
2022/04/25 10:03:02;;;;;;;17.65;13.90;;;8.30;99.90;;;;;;4978135;28;89582;-32
2022/04/25 10:05:47;;;;;;;19.50;12.77;;;8.40;99.90;;;;;;4978149;28;89870;-35
2022/04/25 10:08:17;;;;;;;14.40;12.73;;;8.30;99.90;;;;;;4978842;28;90359;-38
2022/04/25 10:10:51;;;;;;;15.40;12.77;;;8.40;99.90;;;;;;4978332;28;89844;-33
2022/04/25 10:13:17;;;;;;;18.05;12.23;;;8.50;99.90;;;;;;4978277;28;89384;-36
2022/04/25 10:15:44;;;;;;;17.10;11.25;;;8.60;99.90;;;;;;4977642;28;89518;-36
2022/04/25 10:18:10;;;;;;;14.98;13.05;;;8.70;99.90;;;;;;4978519;28;89162;-33
2022/04/25 10:20:38;;;;;;;16.40;13.23;;;8.70;99.90;;;;;;4977955;28;91169;-36
2022/04/25 10:23:06;;;;;;;13.88;11.90;;;8.80;99.90;;;;;;4978063;28;89706;-36
2022/04/25 10:25:32;;;;;;;17.43;13.50;;;8.80;99.90;;;;;;4979067;28;90001;-35
2022/04/25 10:28:01;;;;;;;18.85;13.95;;;8.90;99.90;;;;;;4977703;28;90209;-35
2022/04/25 10:30:32;;;;;;;14.30;12.00;;;8.90;99.90;;;;;;4977979;28;91806;-34
2022/04/25 10:33:47;;;;;;;16.58;13.00;;;8.90;99.90;;;;;;4978118;28;90351;-33
2022/04/25 10:36:38;;;;;;;17.15;13.98;;;9.00;99.90;;;;;;4943041;28;88604;-34
2022/04/25 10:39:20;;;;;;;16.52;12.90;;;9.00;99.90;;;;;;4959874;28;90284;-33
2022/04/25 10:44:47;;;;;;;12.27;11.00;;;9.20;99.90;;;;;;4978118;28;90148;-36
2022/04/25 10:47:18;;;;;;;16.15;12.48;;;9.10;99.90;;;;;;4978103;28;89329;-32
2022/04/25 10:49:53;;;;;;;11.82;10.63;;;9.30;99.90;;;;;;4977191;28;90473;-35
2022/04/25 10:52:34;;;;;;;12.38;10.95;;;9.30;99.90;;;;;;4978122;28;90163;-33
2022/04/25 10:55:32;;;;;;;13.80;11.45;;;9.30;99.90;;;;;;4977499;28;90016;-37
2022/04/25 10:58:03;;;;;;;;;;;9.20;99.90;;;;;;4977699;28;89444;-34
2022/04/25 11:00:37;;;;;;;19.92;12.30;;;9.20;99.90;;;;;;4979979;28;90331;-32
2022/04/25 11:03:08;;;;;;;16.75;12.60;;;9.20;99.90;;;;;;4977843;28;89682;-36
2022/04/25 11:05:39;;;;;;;13.48;12.10;;;9.20;99.90;;;;;;4977390;28;89960;-37
2022/04/25 11:08:19;;;;;;;16.45;13.07;;;9.30;99.90;;;;;;4977438;28;90230;-37
2022/04/25 11:10:59;;;;;;;14.35;11.77;;;9.30;99.90;;;;;;4977769;28;88528;-33
2022/04/25 11:13:29;;;;;;;15.82;12.27;;;9.40;99.90;;;;;;4977542;28;90336;-34
2022/04/25 11:16:14;;;;;;;14.10;11.77;;;9.40;99.90;;;;;;4975192;28;90367;-32
2022/04/25 11:18:41;;;;;;;15.20;12.02;;;9.50;99.90;;;;;;4975218;28;88415;-35
2022/04/25 11:21:14;;;;;;;16.13;13.05;;;9.70;99.90;;;;;;4975163;28;90624;-34
2022/04/25 11:23:46;;;;;;;17.92;12.98;;;9.80;99.90;;;;;;4975346;28;88907;-34
2022/04/25 11:26:36;;;;;;;13.48;11.95;;;9.80;99.90;;;;;;4976119;28;89737;-36
2022/04/25 11:29:08;;;;;;;17.52;13.50;;;9.90;99.90;;;;;;4972855;28;89359;-32
2022/04/25 11:31:35;;;;;;;20.00;13.70;;;10.00;99.90;;;;;;4975671;28;90236;-37
2022/04/25 11:34:04;;;;;;;18.65;14.23;;;10.10;99.90;;;;;;4974705;28;91041;-32
2022/04/25 11:36:30;;;;;;;;;;;10.10;99.90;;;;;;4973625;28;90637;-35
2022/04/25 11:41:43;;;;;;;15.02;12.02;;;10.10;99.90;;;;;;4937968;28;90976;-31
2022/04/25 11:44:09;;;;;;;22.75;15.07;;;10.20;99.90;;;;;;4937792;28;89003;-33
2022/04/25 11:46:36;;;;;;;22.10;18.42;;;10.40;99.90;;;;;;4937386;28;89756;-39
2022/04/25 11:49:04;;;;;;;18.60;15.20;;;10.40;99.90;;;;;;4938012;28;89633;-31
2022/04/25 11:51:34;;;;;;;21.63;13.43;;;10.30;99.90;;;;;;4937300;28;90248;-34
2022/04/25 11:54:04;;;;;;;15.75;13.52;;;10.40;99.90;;;;;;4936953;28;89572;-36
2022/04/25 11:56:31;;;;;;;16.60;12.73;;;10.40;99.90;;;;;;4937769;28;89637;-34
2022/04/25 11:58:59;;;;;;;18.58;12.80;;;10.40;99.90;;;;;;4936896;28;90359;-33
2022/04/25 12:01:39;;;;;;;16.58;14.48;;;10.40;99.90;;;;;;4937324;28;89862;-34
2022/04/25 12:04:15;;;;;;;17.30;14.00;;;10.50;99.90;;;;;;4962760;28;91454;-35
2022/04/25 12:07:04;;;;;;;18.50;15.73;;;10.60;99.90;;;;;;4975258;28;89539;-34
2022/04/25 12:15:40;;;;;;;15.35;12.80;;;11.10;99.90;;;;;;4937548;28;89764;-35
2022/04/25 12:18:12;;;;;;;20.10;14.85;;;11.10;99.90;;;;;;4976453;28;89541;-33
2022/04/25 12:20:40;;;;;;;17.20;14.75;;;11.30;99.90;;;;;;4976185;28;90157;-33
2022/04/25 12:23:06;;;;;;;16.77;13.60;;;11.20;99.90;;;;;;4976187;28;91728;-35
2022/04/25 12:25:34;;;;;;;17.70;15.65;;;11.20;99.90;;;;;;4975850;28;90669;-33
2022/04/25 12:28:00;;;;;;;20.08;14.85;;;11.20;99.90;;;;;;4976136;28;90983;-36
2022/04/25 12:30:28;;;;;;;19.08;15.32;;;11.10;99.90;;;;;;4976004;28;88507;-33
2022/04/25 12:33:20;;;;;;;15.47;13.70;;;11.10;99.90;;;;;;4977966;27;90575;-35
2022/04/25 12:35:48;;;;;;;18.40;15.95;;;11.00;99.90;;;;;;4933982;28;89454;-33
2022/04/25 12:38:35;;;;;;;21.10;16.55;;;10.90;99.90;;;;;;4937135;28;89622;-36
2022/04/25 12:41:00;;;;;;;22.73;16.52;;;10.80;99.90;;;;;;4936588;28;89966;-36
2022/04/25 12:43:46;;;;;;;23.85;17.27;;;10.80;99.90;;;;;;4937138;28;90431;-38
2022/04/25 12:46:14;;;;;;;16.33;14.68;;;10.60;99.90;;;;;;4937184;28;89857;-37
2022/04/25 12:49:01;;;;;;;22.80;15.95;;;10.70;99.90;;;;;;4936145;28;89469;-34
2022/04/25 12:51:35;;;;;;;21.63;16.98;;;10.60;99.90;;;;;;4936362;28;89797;-34
2022/04/25 12:54:02;;;;;;;20.95;16.08;;;10.70;99.90;;;;;;4936437;28;90251;-35
2022/04/25 12:56:31;;;;;;;30.88;16.52;;;10.70;99.90;;;;;;4937176;28;89896;-35
2022/04/25 12:58:57;;;;;;;;;;;10.70;99.90;;;;;;4936660;28;89741;-33
2022/04/25 13:01:30;;;;;;;20.13;15.15;;;10.70;99.90;;;;;;4938238;28;89677;-38
2022/04/25 13:04:13;;;;;;;23.25;16.55;;;10.80;99.90;;;;;;4936100;28;90537;-32
2022/04/25 13:06:42;;;;;;;23.52;17.42;;;10.80;99.90;;;;;;4936410;28;89804;-36
2022/04/25 13:09:08;;;;;;;19.55;16.52;;;10.70;99.90;;;;;;4935550;28;89672;-35
2022/04/25 13:11:36;;;;;;;20.50;18.15;;;10.80;99.90;;;;;;4935909;28;89339;-36
2022/04/25 13:14:02;;;;;;;18.25;16.20;;;10.90;99.90;;;;;;4935807;28;90179;-31
2022/04/25 13:16:28;;;;;;;21.02;17.65;;;10.90;99.90;;;;;;4938251;28;90810;-33
2022/04/25 13:18:54;;;;;;;22.95;17.25;;;10.90;99.90;;;;;;4939282;28;92709;-31